createdAt,value
2019-02-19T00:00:50.440Z,63.80
2019-02-19T00:03:21.233Z,63.80
2019-02-19T00:05:53.984Z,63.10
2019-02-19T00:08:29.699Z,62.70
2019-02-19T00:11:02.438Z,62.10
2019-02-19T00:13:36.409Z,61.70
2019-02-19T00:16:10.165Z,61.30
2019-02-19T00:18:48.063Z,60.90
2019-02-19T00:21:19.371Z,60.70
2019-02-19T00:23:51.348Z,60.50
2019-02-19T00:26:34.600Z,60.50
2019-02-19T00:29:05.371Z,60.40
2019-02-19T00:31:40.620Z,59.90
2019-02-19T00:34:16.195Z,59.60
2019-02-19T00:36:46.936Z,59.60
2019-02-19T00:39:20.717Z,60.00
2019-02-19T00:41:51.501Z,59.70
2019-02-19T00:44:25.847Z,59.50
2019-02-19T00:46:59.089Z,59.40
2019-02-19T00:49:32.200Z,59.10
2019-02-19T00:52:07.425Z,59.10
2019-02-19T00:54:39.113Z,59.20
2019-02-19T00:57:09.910Z,59.30
2019-02-19T00:59:46.867Z,59.20
2019-02-19T01:02:19.376Z,59.50
2019-02-19T01:04:50.219Z,59.40
2019-02-19T01:07:21.267Z,59.40
2019-02-19T01:09:54.815Z,59.20
2019-02-19T01:12:25.617Z,59.10
2019-02-19T01:15:02.388Z,59.40
2019-02-19T01:17:33.643Z,59.50
2019-02-19T01:20:12.467Z,59.80
2019-02-19T01:22:42.838Z,60.30
2019-02-19T01:25:17.092Z,59.50
2019-02-19T01:27:48.124Z,59.90
2019-02-19T01:30:21.710Z,59.80
2019-02-19T01:32:57.175Z,59.80
2019-02-19T01:35:30.441Z,60.00
2019-02-19T01:38:01.057Z,60.00
2019-02-19T01:40:31.739Z,60.20
2019-02-19T01:43:02.468Z,60.50
2019-02-19T01:45:34.298Z,61.40
2019-02-19T01:48:14.161Z,61.50
2019-02-19T01:50:45.123Z,61.50
2019-02-19T01:53:17.462Z,62.00
2019-02-19T01:55:49.653Z,62.30
2019-02-19T01:58:20.457Z,62.20
2019-02-19T02:00:52.444Z,62.30
2019-02-19T02:03:26.332Z,62.80
2019-02-19T02:05:57.071Z,62.80
2019-02-19T02:08:29.373Z,63.10
2019-02-19T02:11:02.556Z,63.30
2019-02-19T02:13:36.568Z,63.00
2019-02-19T02:16:11.761Z,63.30
2019-02-19T02:18:46.537Z,63.70
2019-02-19T02:21:17.278Z,63.80
2019-02-19T02:23:50.356Z,63.60
2019-02-19T02:26:27.223Z,63.40
2019-02-19T02:28:58.385Z,63.70
2019-02-19T02:31:30.702Z,64.20
2019-02-19T02:34:01.376Z,64.90
2019-02-19T02:36:32.291Z,65.20
2019-02-19T02:39:03.470Z,65.50
2019-02-19T02:41:36.292Z,65.90
2019-02-19T02:44:11.444Z,66.20
2019-02-19T02:46:45.745Z,66.20
2019-02-19T02:49:18.493Z,66.40
2019-02-19T02:51:54.497Z,66.80
2019-02-19T02:54:27.658Z,67.10
2019-02-19T02:57:01.822Z,67.10
2019-02-19T02:59:34.115Z,67.10
2019-02-19T03:02:08.238Z,66.90
2019-02-19T03:04:40.899Z,66.90
2019-02-19T03:07:35.877Z,66.70
2019-02-19T03:10:09.735Z,66.60
2019-02-19T03:12:40.535Z,66.90
2019-02-19T03:15:11.668Z,66.60
2019-02-19T03:17:44.610Z,66.70
2019-02-19T03:20:15.280Z,66.90
2019-02-19T03:22:45.886Z,66.90
2019-02-19T03:25:16.795Z,67.20
2019-02-19T03:27:47.510Z,67.00
2019-02-19T03:30:18.305Z,67.00
2019-02-19T03:32:49.102Z,66.60
2019-02-19T03:35:19.793Z,66.30
2019-02-19T03:37:52.056Z,66.50
2019-02-19T03:40:22.698Z,66.20
2019-02-19T03:42:53.344Z,66.20
2019-02-19T03:45:24.109Z,66.00
2019-02-19T03:47:54.975Z,65.60
2019-02-19T03:50:25.523Z,65.60
2019-02-19T03:52:56.200Z,65.40
2019-02-19T03:55:27.742Z,65.30
2019-02-19T03:57:58.755Z,65.50
2019-02-19T04:00:29.345Z,66.40
2019-02-19T04:03:00.279Z,65.60
2019-02-19T04:05:30.932Z,65.60
2019-02-19T04:08:01.824Z,66.00
2019-02-19T04:10:32.757Z,66.40
2019-02-19T04:13:03.374Z,66.60
2019-02-19T04:15:34.267Z,66.70
2019-02-19T04:18:04.971Z,66.90
2019-02-19T04:20:35.621Z,67.50
2019-02-19T04:23:07.602Z,67.50
2019-02-19T04:25:38.341Z,67.80
2019-02-19T04:28:09.268Z,67.90
2019-02-19T04:30:42.250Z,68.40
2019-02-19T04:33:13.108Z,68.70
2019-02-19T04:35:43.788Z,69.10
2019-02-19T04:38:15.944Z,69.20
2019-02-19T04:40:46.842Z,69.30
2019-02-19T04:43:20.547Z,69.30
2019-02-19T04:45:51.278Z,70.00
2019-02-19T04:48:22.042Z,70.60
2019-02-19T04:50:52.802Z,71.10
2019-02-19T04:53:23.578Z,71.30
2019-02-19T04:55:54.310Z,71.50
2019-02-19T04:58:24.886Z,71.30
2019-02-19T05:00:55.543Z,71.10
2019-02-19T05:03:26.442Z,71.00
2019-02-19T05:05:57.566Z,70.90
2019-02-19T05:08:28.608Z,71.00
2019-02-19T05:10:59.323Z,71.20
2019-02-19T05:13:30.175Z,71.10
2019-02-19T05:16:00.928Z,70.90
2019-02-19T05:18:31.664Z,71.00
2019-02-19T05:21:02.580Z,71.30
2019-02-19T05:23:33.452Z,71.20
2019-02-19T05:26:05.330Z,71.50
2019-02-19T05:28:38.961Z,71.90
2019-02-19T05:31:17.524Z,72.40
2019-02-19T05:33:49.879Z,72.40
2019-02-19T05:36:23.542Z,72.30
2019-02-19T05:38:56.905Z,72.70
2019-02-19T05:41:27.622Z,73.50
2019-02-19T05:43:58.290Z,73.10
2019-02-19T05:46:28.990Z,73.20
2019-02-19T05:48:59.691Z,73.50
2019-02-19T05:51:30.525Z,73.80
2019-02-19T05:54:01.348Z,74.40
2019-02-19T05:56:32.079Z,74.60
2019-02-19T05:59:02.866Z,75.60
2019-02-19T06:01:33.573Z,76.50
2019-02-19T06:04:07.421Z,76.60
2019-02-19T06:06:38.131Z,77.00
2019-02-19T06:09:08.687Z,77.10
2019-02-19T06:11:39.367Z,77.40
2019-02-19T06:14:10.083Z,78.10
2019-02-19T06:16:43.738Z,77.50
2019-02-19T06:19:19.895Z,77.50
2019-02-19T06:21:52.640Z,77.60
2019-02-19T06:24:23.661Z,77.50
2019-02-19T06:26:54.454Z,77.80
2019-02-19T06:29:26.334Z,78.10
2019-02-19T06:31:57.014Z,78.00
2019-02-19T06:34:27.753Z,78.20
2019-02-19T06:36:59.960Z,78.60
2019-02-19T06:39:30.727Z,78.70
2019-02-19T06:42:01.655Z,78.60
2019-02-19T06:44:32.333Z,79.10
2019-02-19T06:47:10.239Z,79.20
2019-02-19T06:49:46.393Z,79.30
2019-02-19T06:52:13.654Z,79.20
2019-02-19T06:54:47.053Z,79.10
2019-02-19T06:57:18.245Z,79.10
2019-02-19T06:59:48.863Z,78.90
2019-02-19T07:02:40.688Z,78.70
2019-02-19T07:05:19.597Z,78.40
2019-02-19T07:07:50.194Z,78.00
2019-02-19T07:10:20.937Z,77.90
2019-02-19T07:12:51.679Z,78.10
2019-02-19T07:15:22.402Z,77.90
2019-02-19T07:17:53.286Z,77.70
2019-02-19T07:20:24.027Z,77.80
2019-02-19T07:22:54.791Z,77.90
2019-02-19T07:25:25.389Z,77.90
2019-02-19T07:27:56.388Z,77.60
2019-02-19T07:30:29.947Z,77.50
2019-02-19T07:33:03.672Z,77.30
2019-02-19T07:35:34.537Z,77.10
2019-02-19T07:38:07.013Z,76.70
2019-02-19T07:40:37.959Z,76.60
2019-02-19T07:43:08.673Z,76.30
2019-02-19T07:45:41.129Z,76.40
2019-02-19T07:48:13.231Z,76.20
2019-02-19T07:50:44.248Z,76.30
2019-02-19T07:53:15.155Z,76.40
2019-02-19T07:55:45.766Z,77.10
2019-02-19T07:58:19.952Z,76.60
2019-02-19T08:00:50.770Z,76.40
2019-02-19T08:03:21.364Z,76.20
2019-02-19T08:05:52.002Z,76.00
2019-02-19T08:08:22.579Z,75.80
2019-02-19T08:10:53.239Z,75.80
2019-02-19T08:13:24.160Z,75.80
2019-02-19T08:15:54.788Z,76.20
2019-02-19T08:18:25.476Z,75.90
2019-02-19T08:20:56.074Z,76.10
2019-02-19T08:23:31.607Z,76.30
2019-02-19T08:26:02.364Z,76.40
2019-02-19T08:28:33.343Z,76.50
2019-02-19T08:31:04.042Z,76.30
2019-02-19T08:33:34.959Z,76.40
2019-02-19T08:36:05.942Z,76.40
2019-02-19T08:38:36.610Z,76.20
2019-02-19T08:41:07.592Z,75.90
2019-02-19T08:43:41.523Z,75.40
2019-02-19T08:46:12.099Z,74.60
2019-02-19T08:48:44.018Z,74.20
2019-02-19T08:51:14.590Z,74.00
2019-02-19T08:53:45.186Z,73.60
2019-02-19T08:56:15.817Z,73.20
2019-02-19T08:58:46.449Z,73.10
2019-02-19T09:01:17.912Z,73.50
2019-02-19T09:03:49.580Z,72.10
2019-02-19T09:06:20.267Z,71.40
2019-02-19T09:08:51.035Z,69.60
2019-02-19T09:11:21.696Z,67.80
2019-02-19T09:13:52.374Z,67.40
2019-02-19T09:16:23.233Z,66.40
2019-02-19T09:18:53.880Z,65.10
2019-02-19T09:21:27.623Z,62.90
2019-02-19T09:23:58.584Z,61.80
2019-02-19T09:26:29.235Z,61.90
2019-02-19T09:28:59.935Z,62.90
2019-02-19T09:31:30.684Z,63.50
2019-02-19T09:34:01.266Z,64.30
2019-02-19T09:36:34.771Z,64.50
2019-02-19T09:39:06.706Z,64.20
2019-02-19T09:41:37.294Z,63.30
2019-02-19T09:44:07.936Z,61.20
2019-02-19T09:46:38.503Z,60.00
2019-02-19T09:49:09.240Z,59.20
2019-02-19T09:51:39.947Z,57.50
2019-02-19T09:54:10.816Z,55.40
2019-02-19T09:56:41.517Z,54.90
2019-02-19T09:59:12.480Z,55.10
2019-02-19T10:01:43.150Z,54.20
2019-02-19T10:04:13.810Z,53.80
2019-02-19T10:06:44.442Z,53.70
2019-02-19T10:09:15.025Z,54.30
2019-02-19T10:11:45.687Z,55.30
2019-02-19T10:14:16.313Z,55.30
2019-02-19T10:16:46.993Z,55.40
2019-02-19T10:19:17.551Z,55.10
2019-02-19T10:21:48.122Z,53.90
2019-02-19T10:24:18.755Z,48.50
2019-02-19T10:26:49.780Z,41.70
2019-02-19T10:29:20.562Z,36.10
2019-02-19T10:31:51.183Z,30.50
2019-02-19T10:34:21.834Z,27.90
2019-02-19T10:36:52.437Z,26.90
2019-02-19T10:39:23.133Z,25.80
2019-02-19T10:41:54.108Z,23.50
2019-02-19T10:44:24.703Z,22.50
2019-02-19T10:46:55.680Z,22.50
2019-02-19T10:49:26.287Z,22.90
2019-02-19T10:51:56.892Z,23.20
2019-02-19T10:54:27.495Z,25.30
2019-02-19T10:56:58.187Z,27.30
2019-02-19T10:59:30.328Z,29.50
2019-02-19T11:02:00.972Z,32.70
2019-02-19T11:04:31.562Z,35.70
2019-02-19T11:07:02.198Z,39.20
2019-02-19T11:09:32.889Z,41.10
2019-02-19T11:12:03.536Z,42.50
2019-02-19T11:14:34.223Z,43.50
2019-02-19T11:17:04.772Z,44.80
2019-02-19T11:19:35.433Z,44.20
2019-02-19T11:22:06.189Z,44.30
2019-02-19T11:24:37.711Z,44.40
2019-02-19T11:27:08.384Z,45.10
2019-02-19T11:29:39.050Z,43.30
2019-02-19T11:32:09.819Z,43.60
2019-02-19T11:34:40.758Z,43.40
2019-02-19T11:37:11.470Z,43.20
2019-02-19T11:39:42.311Z,44.40
2019-02-19T11:42:13.138Z,46.00
2019-02-19T11:44:43.844Z,47.80
2019-02-19T11:47:15.238Z,48.50
2019-02-19T11:49:45.834Z,48.50
2019-02-19T11:52:16.445Z,44.60
2019-02-19T11:54:47.172Z,41.20
2019-02-19T11:57:17.744Z,42.00
2019-02-19T11:59:49.420Z,42.90
2019-02-19T12:02:21.362Z,44.20
2019-02-19T12:04:51.912Z,46.00
2019-02-19T12:07:22.642Z,47.30
2019-02-19T12:09:53.267Z,47.80
2019-02-19T12:12:23.817Z,47.50
2019-02-19T12:14:54.550Z,47.20
2019-02-19T12:17:25.579Z,47.20
2019-02-19T12:19:56.259Z,48.50
2019-02-19T12:22:28.115Z,49.60
2019-02-19T12:24:58.763Z,50.10
2019-02-19T12:27:29.862Z,50.90
2019-02-19T12:30:00.488Z,51.30
2019-02-19T12:32:31.137Z,51.40
2019-02-19T12:35:03.776Z,51.30
2019-02-19T12:37:34.348Z,50.50
2019-02-19T12:40:05.495Z,50.00
2019-02-19T12:42:36.459Z,49.80
2019-02-19T12:45:08.402Z,49.00
2019-02-19T12:47:39.228Z,48.30
2019-02-19T12:50:11.423Z,48.70
2019-02-19T12:52:42.051Z,48.70
2019-02-19T12:55:12.733Z,49.30
2019-02-19T12:57:43.419Z,49.80
2019-02-19T13:00:15.451Z,49.50
2019-02-19T13:02:46.535Z,48.90
2019-02-19T13:05:17.883Z,49.50
2019-02-19T13:07:48.836Z,49.90
2019-02-19T13:10:19.532Z,50.30
2019-02-19T13:12:50.173Z,50.60
2019-02-19T13:15:20.981Z,51.30
2019-02-19T13:17:52.386Z,51.50
2019-02-19T13:20:22.995Z,51.50
2019-02-19T13:22:53.546Z,51.50
2019-02-19T13:25:24.149Z,51.40
2019-02-19T13:27:54.700Z,50.90
2019-02-19T13:30:25.397Z,50.20
2019-02-19T13:32:56.255Z,49.30
2019-02-19T13:35:26.844Z,49.30
2019-02-19T13:37:57.462Z,49.40
2019-02-19T13:40:28.372Z,49.30
2019-02-19T13:43:00.540Z,49.90
2019-02-19T13:45:31.208Z,50.00
2019-02-19T13:48:05.968Z,50.20
2019-02-19T13:50:34.160Z,49.60
2019-02-19T13:53:15.492Z,49.30
2019-02-19T13:55:52.319Z,49.20
2019-02-19T13:58:22.846Z,49.20
2019-02-19T14:00:53.639Z,49.50
2019-02-19T14:03:24.292Z,49.60
2019-02-19T14:05:54.784Z,49.90
2019-02-19T14:08:26.882Z,50.70
2019-02-19T14:10:57.528Z,50.50
2019-02-19T14:13:28.372Z,49.90
2019-02-19T14:16:16.843Z,50.30
2019-02-19T14:18:59.313Z,50.50
2019-02-19T14:21:47.867Z,50.60
2019-02-19T14:24:36.193Z,50.60
2019-02-19T14:27:28.920Z,50.90
2019-02-19T14:30:18.619Z,51.10
2019-02-19T14:33:03.582Z,51.70
2019-02-19T14:35:51.828Z,52.00
2019-02-19T14:38:43.355Z,52.20
2019-02-19T14:41:45.420Z,52.20
2019-02-19T14:44:42.551Z,52.60
2019-02-19T14:47:31.163Z,52.70
2019-02-19T14:50:15.047Z,52.50
2019-02-19T14:53:13.812Z,52.40
2019-02-19T14:56:12.372Z,52.40
2019-02-19T14:58:59.214Z,53.00
2019-02-19T15:01:58.091Z,53.40
2019-02-19T15:04:47.078Z,53.90
2019-02-19T15:07:26.984Z,54.40
2019-02-19T15:10:15.403Z,54.60
2019-02-19T15:13:04.325Z,54.90
2019-02-19T15:15:48.899Z,55.40
2019-02-19T15:18:42.056Z,55.60
2019-02-19T15:21:37.633Z,55.50
2019-02-19T15:24:32.285Z,55.40
2019-02-19T15:27:21.318Z,55.90
2019-02-19T15:30:14.124Z,56.70
2019-02-19T15:33:02.761Z,58.20
2019-02-19T15:35:52.215Z,58.50
2019-02-19T15:38:41.809Z,58.60
2019-02-19T15:41:29.104Z,57.50
2019-02-19T15:44:10.097Z,57.50
2019-02-19T15:46:50.064Z,57.30
2019-02-19T15:49:35.507Z,57.10
2019-02-19T15:52:27.450Z,57.20
2019-02-19T15:55:20.328Z,58.20
2019-02-19T15:58:09.232Z,58.60
2019-02-19T16:01:05.033Z,59.00
2019-02-19T16:03:51.035Z,58.90
2019-02-19T16:06:45.034Z,59.50
2019-02-19T16:09:26.263Z,58.50
2019-02-19T16:12:09.282Z,58.20
2019-02-19T16:14:46.978Z,58.40
2019-02-19T16:17:55.036Z,58.70
2019-02-19T16:20:44.725Z,58.60
2019-02-19T16:23:35.006Z,59.00
2019-02-19T16:26:43.197Z,58.80
2019-02-19T16:29:28.510Z,59.00
2019-02-19T16:32:21.343Z,60.00
2019-02-19T16:35:11.076Z,59.40
2019-02-19T16:37:49.209Z,59.50
2019-02-19T16:40:45.220Z,60.00
2019-02-19T16:43:50.197Z,61.30
2019-02-19T16:46:32.383Z,70.10
2019-02-19T16:49:30.904Z,74.10
2019-02-19T16:52:23.959Z,77.10
2019-02-19T16:55:04.988Z,78.80
2019-02-19T16:58:00.364Z,80.50
2019-02-19T17:00:40.565Z,81.00
2019-02-19T17:03:19.062Z,81.50
2019-02-19T17:06:05.268Z,81.40
2019-02-19T17:09:10.195Z,82.10
2019-02-19T17:11:49.015Z,81.90
2019-02-19T17:14:38.849Z,81.80
2019-02-19T17:17:30.466Z,82.30
2019-02-19T17:20:29.150Z,82.70
2019-02-19T17:23:21.104Z,82.70
2019-02-19T17:26:13.412Z,82.30
2019-02-19T17:29:18.581Z,82.70
2019-02-19T17:32:15.028Z,82.70
2019-02-19T17:35:15.116Z,82.20
2019-02-19T17:38:12.338Z,83.90
2019-02-19T17:40:48.503Z,86.20
2019-02-19T17:43:47.180Z,88.50
2019-02-19T17:46:34.399Z,89.20
2019-02-19T17:49:24.557Z,90.00
2019-02-19T17:52:05.383Z,90.70
2019-02-19T17:55:01.449Z,90.80
2019-02-19T17:57:54.659Z,90.40
2019-02-19T18:00:41.099Z,90.50
2019-02-19T18:03:35.594Z,90.80
2019-02-19T18:06:31.049Z,91.00
2019-02-19T18:09:20.948Z,90.70
2019-02-19T18:12:08.450Z,90.70
2019-02-19T18:15:01.064Z,90.90
2019-02-19T18:17:38.282Z,91.00
2019-02-19T18:20:11.095Z,91.10
2019-02-19T18:22:42.264Z,90.80
2019-02-19T18:25:13.202Z,90.50
2019-02-19T18:27:44.249Z,90.50
2019-02-19T18:30:15.344Z,90.50
2019-02-19T18:32:47.640Z,90.50
2019-02-19T18:35:19.054Z,90.20
2019-02-19T18:37:55.910Z,90.20
2019-02-19T18:40:33.445Z,90.20
2019-02-19T18:43:04.605Z,90.40
2019-02-19T18:45:35.419Z,89.90
2019-02-19T18:48:09.181Z,89.40
2019-02-19T18:50:40.490Z,89.30
2019-02-19T18:53:11.573Z,89.30
2019-02-19T18:55:51.082Z,89.00
2019-02-19T18:58:23.135Z,89.40
2019-02-19T19:00:54.828Z,89.50
2019-02-19T19:03:28.376Z,89.70
2019-02-19T19:06:07.888Z,89.80
2019-02-19T19:08:44.205Z,89.10
2019-02-19T19:11:20.080Z,89.70
2019-02-19T19:14:05.793Z,88.80
2019-02-19T19:16:39.264Z,88.90
2019-02-19T19:19:13.139Z,88.70
2019-02-19T19:21:55.049Z,88.90
2019-02-19T19:25:01.105Z,89.30
2019-02-19T19:27:32.445Z,88.90
2019-02-19T19:30:07.137Z,89.20
2019-02-19T19:32:43.329Z,88.90
2019-02-19T19:35:23.888Z,88.80
2019-02-19T19:37:58.704Z,88.30
2019-02-19T19:40:36.201Z,89.20
2019-02-19T19:43:24.474Z,88.70
2019-02-19T19:46:34.815Z,88.30
2019-02-19T19:49:24.000Z,88.30
2019-02-19T19:52:01.003Z,88.30
2019-02-19T19:54:36.443Z,88.30
2019-02-19T19:57:16.385Z,88.30
2019-02-19T19:59:52.893Z,88.40
2019-02-19T20:02:29.651Z,88.00
2019-02-19T20:05:08.930Z,88.10
2019-02-19T20:07:47.998Z,88.00
2019-02-19T20:10:23.509Z,88.00
2019-02-19T20:12:57.242Z,87.50
2019-02-19T20:15:35.715Z,87.20
2019-02-19T20:18:12.947Z,87.50
2019-02-19T20:20:45.620Z,87.80
2019-02-19T20:23:16.706Z,87.50
2019-02-19T20:25:47.433Z,87.40
2019-02-19T20:28:18.369Z,87.30
2019-02-19T20:30:56.913Z,87.30
2019-02-19T20:33:27.994Z,87.40
2019-02-19T20:35:58.802Z,87.30
2019-02-19T20:38:30.206Z,87.00
2019-02-19T20:41:03.412Z,87.30
2019-02-19T20:43:35.212Z,87.20
2019-02-19T20:46:10.349Z,87.40
2019-02-19T20:48:49.811Z,87.60
2019-02-19T20:51:35.899Z,87.70
2019-02-19T20:53:59.574Z,88.20
2019-02-19T20:56:32.934Z,88.20
2019-02-19T20:59:19.481Z,88.40
2019-02-19T21:01:52.030Z,87.60
2019-02-19T21:04:22.654Z,87.20
2019-02-19T21:06:53.559Z,87.50
2019-02-19T21:09:24.328Z,87.40
2019-02-19T21:12:11.307Z,86.90
2019-02-19T21:14:51.348Z,87.00
2019-02-19T21:17:32.615Z,87.20
2019-02-19T21:20:07.840Z,87.30
2019-02-19T21:22:38.651Z,87.40
2019-02-19T21:25:09.445Z,87.60
2019-02-19T21:27:40.269Z,87.40
2019-02-19T21:30:12.184Z,87.30
2019-02-19T21:32:46.412Z,87.10
2019-02-19T21:35:23.179Z,87.10
2019-02-19T21:37:54.061Z,86.70
2019-02-19T21:40:24.967Z,86.50
2019-02-19T21:42:58.090Z,86.60
2019-02-19T21:45:29.042Z,86.10
2019-02-19T21:48:00.251Z,85.20
2019-02-19T21:50:31.089Z,84.90
2019-02-19T21:53:02.446Z,84.20
2019-02-19T21:55:36.109Z,83.60
2019-02-19T21:58:07.015Z,83.50
2019-02-19T22:00:38.350Z,83.70
2019-02-19T22:03:09.148Z,83.50
2019-02-19T22:05:40.111Z,83.50
2019-02-19T22:08:11.215Z,83.10
2019-02-19T22:10:42.144Z,83.20
2019-02-19T22:13:18.069Z,83.40
2019-02-19T22:15:54.833Z,83.00
2019-02-19T22:18:28.315Z,83.20
2019-02-19T22:21:07.159Z,83.60
2019-02-19T22:23:42.058Z,83.70
2019-02-19T22:26:24.937Z,83.00
2019-02-19T22:28:59.288Z,83.10
2019-02-19T22:31:31.301Z,83.10
2019-02-19T22:34:02.418Z,82.40
2019-02-19T22:36:33.405Z,81.90
2019-02-19T22:39:06.512Z,81.60
2019-02-19T22:41:37.514Z,81.40
2019-02-19T22:44:08.273Z,81.10
2019-02-19T22:46:40.584Z,80.60
2019-02-19T22:49:11.473Z,79.90
2019-02-19T22:51:44.932Z,79.60
2019-02-19T22:54:33.876Z,79.50
2019-02-19T22:57:04.679Z,79.30
2019-02-19T22:59:41.755Z,79.10
2019-02-19T23:02:21.796Z,78.30
2019-02-19T23:04:56.146Z,77.90
2019-02-19T23:07:26.796Z,77.10
2019-02-19T23:09:57.868Z,77.60
2019-02-19T23:12:30.860Z,77.50
2019-02-19T23:15:01.456Z,77.20
2019-02-19T23:17:33.923Z,77.00
2019-02-19T23:20:09.959Z,76.60
2019-02-19T23:22:42.419Z,76.50
2019-02-19T23:25:13.314Z,76.80
2019-02-19T23:27:44.041Z,76.70
2019-02-19T23:30:15.081Z,76.90
2019-02-19T23:32:45.809Z,77.00
2019-02-19T23:35:23.351Z,77.40
2019-02-19T23:37:55.336Z,77.40
2019-02-19T23:40:26.206Z,77.10
2019-02-19T23:43:00.063Z,76.90
2019-02-19T23:45:34.466Z,76.90
2019-02-19T23:48:06.048Z,77.30
2019-02-19T23:50:42.730Z,77.50
2019-02-19T23:53:13.691Z,77.40
2019-02-19T23:55:47.498Z,77.30
2019-02-19T23:58:18.204Z,77.40
